sensor_id;sensor_type;location;lat;lon;timestamp;P1;durP1;ratioP1;P2;durP2;ratioP2
28988;SDS011;16089;59.952;10.818;2022-07-23T00:02:13;2.47;;;1.73;;
28988;SDS011;16089;59.952;10.818;2022-07-23T00:04:40;5.55;;;3.20;;
28988;SDS011;16089;59.952;10.818;2022-07-23T00:07:06;4.22;;;2.95;;
28988;SDS011;16089;59.952;10.818;2022-07-23T00:09:34;3.65;;;1.88;;
28988;SDS011;16089;59.952;10.818;2022-07-23T00:12:00;2.38;;;1.50;;
28988;SDS011;16089;59.952;10.818;2022-07-23T00:14:27;4.22;;;1.88;;
28988;SDS011;16089;59.952;10.818;2022-07-23T00:16:53;5.07;;;1.70;;
28988;SDS011;16089;59.952;10.818;2022-07-23T00:19:19;3.13;;;1.35;;
28988;SDS011;16089;59.952;10.818;2022-07-23T00:21:46;4.35;;;1.50;;
28988;SDS011;16089;59.952;10.818;2022-07-23T00:24:12;2.20;;;1.55;;
28988;SDS011;16089;59.952;10.818;2022-07-23T00:26:40;3.35;;;1.60;;
28988;SDS011;16089;59.952;10.818;2022-07-23T00:29:06;3.00;;;1.70;;
28988;SDS011;16089;59.952;10.818;2022-07-23T00:31:33;2.95;;;1.73;;
28988;SDS011;16089;59.952;10.818;2022-07-23T00:33:59;2.60;;;1.70;;
28988;SDS011;16089;59.952;10.818;2022-07-23T00:36:27;4.05;;;1.85;;
28988;SDS011;16089;59.952;10.818;2022-07-23T00:38:53;3.63;;;1.85;;
28988;SDS011;16089;59.952;10.818;2022-07-23T00:41:20;3.00;;;1.60;;
28988;SDS011;16089;59.952;10.818;2022-07-23T00:43:47;3.22;;;2.17;;
28988;SDS011;16089;59.952;10.818;2022-07-23T00:46:18;3.13;;;1.30;;
28988;SDS011;16089;59.952;10.818;2022-07-23T00:48:44;3.85;;;1.80;;
28988;SDS011;16089;59.952;10.818;2022-07-23T00:51:11;3.58;;;1.83;;
28988;SDS011;16089;59.952;10.818;2022-07-23T00:53:37;2.47;;;1.63;;
28988;SDS011;16089;59.952;10.818;2022-07-23T00:56:04;2.90;;;1.70;;
28988;SDS011;16089;59.952;10.818;2022-07-23T00:58:30;3.45;;;1.50;;
28988;SDS011;16089;59.952;10.818;2022-07-23T01:00:58;3.25;;;1.90;;
28988;SDS011;16089;59.952;10.818;2022-07-23T01:03:25;4.30;;;1.60;;
28988;SDS011;16089;59.952;10.818;2022-07-23T01:05:51;3.80;;;1.63;;
28988;SDS011;16089;59.952;10.818;2022-07-23T01:08:18;3.88;;;1.63;;
28988;SDS011;16089;59.952;10.818;2022-07-23T01:10:44;2.65;;;1.52;;
28988;SDS011;16089;59.952;10.818;2022-07-23T01:13:11;4.50;;;1.50;;
28988;SDS011;16089;59.952;10.818;2022-07-23T01:15:38;4.03;;;1.80;;
28988;SDS011;16089;59.952;10.818;2022-07-23T01:18:06;4.15;;;1.60;;
28988;SDS011;16089;59.952;10.818;2022-07-23T01:20:33;2.63;;;1.70;;
28988;SDS011;16089;59.952;10.818;2022-07-23T01:23:01;3.38;;;1.85;;
28988;SDS011;16089;59.952;10.818;2022-07-23T01:25:27;4.10;;;1.80;;
28988;SDS011;16089;59.952;10.818;2022-07-23T01:27:54;2.85;;;1.60;;
28988;SDS011;16089;59.952;10.818;2022-07-23T01:30:20;2.83;;;1.90;;
28988;SDS011;16089;59.952;10.818;2022-07-23T01:32:47;2.65;;;1.40;;
28988;SDS011;16089;59.952;10.818;2022-07-23T01:35:13;2.95;;;1.50;;
28988;SDS011;16089;59.952;10.818;2022-07-23T01:37:39;3.35;;;1.65;;
28988;SDS011;16089;59.952;10.818;2022-07-23T01:40:07;4.65;;;1.50;;
28988;SDS011;16089;59.952;10.818;2022-07-23T01:42:34;2.67;;;1.60;;
28988;SDS011;16089;59.952;10.818;2022-07-23T01:45:01;3.70;;;1.33;;
28988;SDS011;16089;59.952;10.818;2022-07-23T01:47:28;4.30;;;1.80;;
28988;SDS011;16089;59.952;10.818;2022-07-23T01:49:54;3.75;;;1.85;;
28988;SDS011;16089;59.952;10.818;2022-07-23T01:52:20;2.70;;;1.52;;
28988;SDS011;16089;59.952;10.818;2022-07-23T01:54:47;4.65;;;1.67;;
28988;SDS011;16089;59.952;10.818;2022-07-23T01:57:14;3.50;;;1.40;;
28988;SDS011;16089;59.952;10.818;2022-07-23T01:59:41;3.97;;;1.42;;
28988;SDS011;16089;59.952;10.818;2022-07-23T02:02:07;2.38;;;1.50;;
28988;SDS011;16089;59.952;10.818;2022-07-23T02:04:34;3.47;;;1.33;;
28988;SDS011;16089;59.952;10.818;2022-07-23T02:07:01;3.53;;;1.40;;
28988;SDS011;16089;59.952;10.818;2022-07-23T02:09:28;2.90;;;1.75;;
28988;SDS011;16089;59.952;10.818;2022-07-23T02:11:54;4.53;;;1.48;;
28988;SDS011;16089;59.952;10.818;2022-07-23T02:14:22;3.95;;;1.45;;
28988;SDS011;16089;59.952;10.818;2022-07-23T02:16:49;3.67;;;1.48;;
28988;SDS011;16089;59.952;10.818;2022-07-23T02:19:15;2.30;;;1.33;;
28988;SDS011;16089;59.952;10.818;2022-07-23T02:21:42;2.20;;;1.35;;
28988;SDS011;16089;59.952;10.818;2022-07-23T02:24:09;2.03;;;1.50;;
28988;SDS011;16089;59.952;10.818;2022-07-23T02:26:35;3.85;;;1.40;;
28988;SDS011;16089;59.952;10.818;2022-07-23T02:29:02;2.70;;;1.40;;
28988;SDS011;16089;59.952;10.818;2022-07-23T02:31:30;3.08;;;1.50;;
28988;SDS011;16089;59.952;10.818;2022-07-23T02:33:56;2.38;;;1.45;;
28988;SDS011;16089;59.952;10.818;2022-07-23T02:36:23;2.83;;;1.40;;
28988;SDS011;16089;59.952;10.818;2022-07-23T02:38:49;2.17;;;1.40;;
28988;SDS011;16089;59.952;10.818;2022-07-23T02:41:16;2.53;;;1.60;;
28988;SDS011;16089;59.952;10.818;2022-07-23T02:43:42;2.35;;;1.60;;
28988;SDS011;16089;59.952;10.818;2022-07-23T02:46:09;2.95;;;1.52;;
28988;SDS011;16089;59.952;10.818;2022-07-23T02:48:37;2.35;;;1.35;;
28988;SDS011;16089;59.952;10.818;2022-07-23T02:51:03;2.42;;;1.40;;
28988;SDS011;16089;59.952;10.818;2022-07-23T02:53:29;8.57;;;1.40;;
28988;SDS011;16089;59.952;10.818;2022-07-23T02:55:56;2.67;;;1.38;;
28988;SDS011;16089;59.952;10.818;2022-07-23T02:58:22;3.58;;;1.40;;
28988;SDS011;16089;59.952;10.818;2022-07-23T03:00:50;6.70;;;1.73;;
28988;SDS011;16089;59.952;10.818;2022-07-23T03:03:16;4.05;;;1.58;;
28988;SDS011;16089;59.952;10.818;2022-07-23T03:05:44;3.63;;;1.58;;
28988;SDS011;16089;59.952;10.818;2022-07-23T03:08:11;2.42;;;1.65;;
28988;SDS011;16089;59.952;10.818;2022-07-23T03:10:37;3.15;;;1.42;;
28988;SDS011;16089;59.952;10.818;2022-07-23T03:13:03;2.72;;;1.58;;
28988;SDS011;16089;59.952;10.818;2022-07-23T03:15:30;4.00;;;1.45;;
28988;SDS011;16089;59.952;10.818;2022-07-23T03:17:56;4.97;;;1.42;;
28988;SDS011;16089;59.952;10.818;2022-07-23T03:20:22;3.38;;;1.40;;
28988;SDS011;16089;59.952;10.818;2022-07-23T03:22:50;2.17;;;1.30;;
28988;SDS011;16089;59.952;10.818;2022-07-23T03:25:16;2.10;;;1.35;;
28988;SDS011;16089;59.952;10.818;2022-07-23T03:27:43;1.90;;;1.20;;
28988;SDS011;16089;59.952;10.818;2022-07-23T03:30:10;2.45;;;1.67;;
28988;SDS011;16089;59.952;10.818;2022-07-23T03:32:37;3.03;;;1.10;;
28988;SDS011;16089;59.952;10.818;2022-07-23T03:35:04;2.83;;;1.25;;
28988;SDS011;16089;59.952;10.818;2022-07-23T03:37:30;2.30;;;1.50;;
28988;SDS011;16089;59.952;10.818;2022-07-23T03:39:58;3.33;;;1.40;;
28988;SDS011;16089;59.952;10.818;2022-07-23T03:42:24;2.50;;;1.30;;
28988;SDS011;16089;59.952;10.818;2022-07-23T03:44:51;2.33;;;1.30;;
28988;SDS011;16089;59.952;10.818;2022-07-23T03:47:17;4.05;;;1.45;;
28988;SDS011;16089;59.952;10.818;2022-07-23T03:49:46;3.00;;;1.50;;
28988;SDS011;16089;59.952;10.818;2022-07-23T03:52:13;4.38;;;1.65;;
28988;SDS011;16089;59.952;10.818;2022-07-23T03:54:39;4.70;;;1.70;;
28988;SDS011;16089;59.952;10.818;2022-07-23T03:57:07;2.92;;;1.63;;
28988;SDS011;16089;59.952;10.818;2022-07-23T03:59:33;2.10;;;1.38;;
28988;SDS011;16089;59.952;10.818;2022-07-23T04:02:00;2.72;;;1.52;;
28988;SDS011;16089;59.952;10.818;2022-07-23T04:04:26;1.90;;;1.35;;
28988;SDS011;16089;59.952;10.818;2022-07-23T04:06:52;2.40;;;1.17;;
28988;SDS011;16089;59.952;10.818;2022-07-23T04:09:19;3.63;;;1.73;;
28988;SDS011;16089;59.952;10.818;2022-07-23T04:11:45;2.55;;;1.25;;
28988;SDS011;16089;59.952;10.818;2022-07-23T04:14:13;3.70;;;1.35;;
28988;SDS011;16089;59.952;10.818;2022-07-23T04:16:39;2.03;;;1.30;;
28988;SDS011;16089;59.952;10.818;2022-07-23T04:19:05;2.88;;;1.63;;
28988;SDS011;16089;59.952;10.818;2022-07-23T04:21:32;3.67;;;1.40;;
28988;SDS011;16089;59.952;10.818;2022-07-23T04:23:58;3.50;;;1.40;;
28988;SDS011;16089;59.952;10.818;2022-07-23T04:26:25;3.72;;;1.50;;
28988;SDS011;16089;59.952;10.818;2022-07-23T04:28:51;2.40;;;1.50;;
28988;SDS011;16089;59.952;10.818;2022-07-23T04:31:19;2.22;;;1.20;;
28988;SDS011;16089;59.952;10.818;2022-07-23T04:33:45;1.90;;;1.20;;
28988;SDS011;16089;59.952;10.818;2022-07-23T04:36:11;2.00;;;1.05;;
28988;SDS011;16089;59.952;10.818;2022-07-23T04:38:38;2.95;;;1.10;;
28988;SDS011;16089;59.952;10.818;2022-07-23T04:41:04;1.42;;;1.00;;
28988;SDS011;16089;59.952;10.818;2022-07-23T04:43:31;1.70;;;0.95;;
28988;SDS011;16089;59.952;10.818;2022-07-23T04:45:57;2.47;;;1.10;;
28988;SDS011;16089;59.952;10.818;2022-07-23T04:48:25;1.52;;;1.02;;
28988;SDS011;16089;59.952;10.818;2022-07-23T04:50:51;3.15;;;1.00;;
28988;SDS011;16089;59.952;10.818;2022-07-23T04:53:17;0.98;;;0.70;;
28988;SDS011;16089;59.952;10.818;2022-07-23T04:55:44;1.25;;;0.90;;
28988;SDS011;16089;59.952;10.818;2022-07-23T04:58:11;2.47;;;0.80;;
28988;SDS011;16089;59.952;10.818;2022-07-23T05:00:37;1.40;;;0.80;;
28988;SDS011;16089;59.952;10.818;2022-07-23T05:03:04;1.55;;;0.90;;
28988;SDS011;16089;59.952;10.818;2022-07-23T05:05:31;4.25;;;1.00;;
28988;SDS011;16089;59.952;10.818;2022-07-23T05:07:58;1.48;;;1.08;;
28988;SDS011;16089;59.952;10.818;2022-07-23T05:10:24;2.05;;;1.10;;
28988;SDS011;16089;59.952;10.818;2022-07-23T05:12:51;1.58;;;0.93;;
28988;SDS011;16089;59.952;10.818;2022-07-23T05:15:17;1.88;;;1.00;;
28988;SDS011;16089;59.952;10.818;2022-07-23T05:17:43;2.22;;;1.00;;
28988;SDS011;16089;59.952;10.818;2022-07-23T05:20:10;3.40;;;0.90;;
28988;SDS011;16089;59.952;10.818;2022-07-23T05:22:38;1.35;;;0.88;;
28988;SDS011;16089;59.952;10.818;2022-07-23T05:25:04;1.17;;;0.88;;
28988;SDS011;16089;59.952;10.818;2022-07-23T05:27:31;2.85;;;0.77;;
28988;SDS011;16089;59.952;10.818;2022-07-23T05:29:57;1.60;;;0.80;;
28988;SDS011;16089;59.952;10.818;2022-07-23T05:32:24;2.28;;;0.70;;
28988;SDS011;16089;59.952;10.818;2022-07-23T05:34:50;1.70;;;0.95;;
28988;SDS011;16089;59.952;10.818;2022-07-23T05:37:17;1.42;;;0.80;;
28988;SDS011;16089;59.952;10.818;2022-07-23T05:39:45;1.40;;;0.80;;
28988;SDS011;16089;59.952;10.818;2022-07-23T05:42:11;1.55;;;0.80;;
28988;SDS011;16089;59.952;10.818;2022-07-23T05:44:37;1.67;;;0.80;;
28988;SDS011;16089;59.952;10.818;2022-07-23T05:47:04;1.02;;;0.65;;
28988;SDS011;16089;59.952;10.818;2022-07-23T05:49:30;1.67;;;0.73;;
28988;SDS011;16089;59.952;10.818;2022-07-23T05:51:56;4.72;;;1.17;;
28988;SDS011;16089;59.952;10.818;2022-07-23T05:54:23;3.80;;;0.82;;
28988;SDS011;16089;59.952;10.818;2022-07-23T05:56:51;1.20;;;0.70;;
28988;SDS011;16089;59.952;10.818;2022-07-23T05:59:18;1.13;;;0.80;;
28988;SDS011;16089;59.952;10.818;2022-07-23T06:01:44;1.45;;;0.70;;
28988;SDS011;16089;59.952;10.818;2022-07-23T06:04:10;1.75;;;0.70;;
28988;SDS011;16089;59.952;10.818;2022-07-23T06:06:37;2.83;;;0.70;;
28988;SDS011;16089;59.952;10.818;2022-07-23T06:09:03;1.83;;;1.15;;
28988;SDS011;16089;59.952;10.818;2022-07-23T06:11:29;1.30;;;0.60;;
28988;SDS011;16089;59.952;10.818;2022-07-23T06:13:57;3.47;;;0.80;;
28988;SDS011;16089;59.952;10.818;2022-07-23T06:16:23;1.33;;;0.70;;
28988;SDS011;16089;59.952;10.818;2022-07-23T06:18:50;1.30;;;0.80;;
28988;SDS011;16089;59.952;10.818;2022-07-23T06:21:17;1.00;;;0.70;;
28988;SDS011;16089;59.952;10.818;2022-07-23T06:23:43;1.00;;;0.60;;
28988;SDS011;16089;59.952;10.818;2022-07-23T06:26:09;0.82;;;0.50;;
28988;SDS011;16089;59.952;10.818;2022-07-23T06:28:36;1.10;;;0.70;;
28988;SDS011;16089;59.952;10.818;2022-07-23T06:31:04;0.90;;;0.60;;
28988;SDS011;16089;59.952;10.818;2022-07-23T06:33:30;1.70;;;0.70;;
28988;SDS011;16089;59.952;10.818;2022-07-23T06:35:56;0.90;;;0.55;;
28988;SDS011;16089;59.952;10.818;2022-07-23T06:38:23;1.15;;;0.80;;
28988;SDS011;16089;59.952;10.818;2022-07-23T06:40:49;1.30;;;0.70;;
28988;SDS011;16089;59.952;10.818;2022-07-23T06:43:16;2.33;;;0.70;;
28988;SDS011;16089;59.952;10.818;2022-07-23T06:45:42;0.85;;;0.70;;
28988;SDS011;16089;59.952;10.818;2022-07-23T06:48:10;1.20;;;0.60;;
28988;SDS011;16089;59.952;10.818;2022-07-23T06:50:36;1.17;;;0.60;;
28988;SDS011;16089;59.952;10.818;2022-07-23T06:53:03;1.30;;;0.60;;
28988;SDS011;16089;59.952;10.818;2022-07-23T06:55:29;1.98;;;0.60;;
28988;SDS011;16089;59.952;10.818;2022-07-23T06:57:56;1.70;;;0.60;;
28988;SDS011;16089;59.952;10.818;2022-07-23T07:00:22;3.70;;;2.05;;
28988;SDS011;16089;59.952;10.818;2022-07-23T07:02:52;1.40;;;0.60;;
28988;SDS011;16089;59.952;10.818;2022-07-23T07:05:20;6.07;;;3.47;;
28988;SDS011;16089;59.952;10.818;2022-07-23T07:07:48;1.88;;;0.98;;
28988;SDS011;16089;59.952;10.818;2022-07-23T07:10:14;1.48;;;0.50;;
28988;SDS011;16089;59.952;10.818;2022-07-23T07:12:42;0.98;;;0.40;;
28988;SDS011;16089;59.952;10.818;2022-07-23T07:15:09;0.65;;;0.50;;
28988;SDS011;16089;59.952;10.818;2022-07-23T07:17:35;1.17;;;0.70;;
28988;SDS011;16089;59.952;10.818;2022-07-23T07:20:01;2.35;;;0.60;;
28988;SDS011;16089;59.952;10.818;2022-07-23T07:22:29;0.50;;;0.40;;
28988;SDS011;16089;59.952;10.818;2022-07-23T07:24:56;1.23;;;0.50;;
28988;SDS011;16089;59.952;10.818;2022-07-23T07:27:22;1.13;;;0.70;;
28988;SDS011;16089;59.952;10.818;2022-07-23T07:29:48;1.27;;;0.60;;
28988;SDS011;16089;59.952;10.818;2022-07-23T07:32:17;0.95;;;0.60;;
28988;SDS011;16089;59.952;10.818;2022-07-23T07:34:44;1.42;;;0.57;;
28988;SDS011;16089;59.952;10.818;2022-07-23T07:37:10;1.65;;;0.60;;
28988;SDS011;16089;59.952;10.818;2022-07-23T07:39:38;2.25;;;0.55;;
28988;SDS011;16089;59.952;10.818;2022-07-23T07:42:04;0.70;;;0.55;;
28988;SDS011;16089;59.952;10.818;2022-07-23T07:44:30;1.08;;;0.60;;
28988;SDS011;16089;59.952;10.818;2022-07-23T07:46:57;0.88;;;0.60;;
28988;SDS011;16089;59.952;10.818;2022-07-23T07:49:23;1.23;;;0.57;;
28988;SDS011;16089;59.952;10.818;2022-07-23T07:51:49;1.25;;;0.68;;
28988;SDS011;16089;59.952;10.818;2022-07-23T07:54:16;0.93;;;0.50;;
28988;SDS011;16089;59.952;10.818;2022-07-23T07:56:44;1.23;;;0.50;;
28988;SDS011;16089;59.952;10.818;2022-07-23T07:59:10;3.13;;;0.50;;
28988;SDS011;16089;59.952;10.818;2022-07-23T08:01:37;1.95;;;0.50;;
28988;SDS011;16089;59.952;10.818;2022-07-23T08:04:03;1.77;;;0.60;;
28988;SDS011;16089;59.952;10.818;2022-07-23T08:06:30;1.02;;;0.60;;
28988;SDS011;16089;59.952;10.818;2022-07-23T08:08:56;1.05;;;0.68;;
28988;SDS011;16089;59.952;10.818;2022-07-23T08:11:22;1.02;;;0.60;;
28988;SDS011;16089;59.952;10.818;2022-07-23T08:13:50;1.33;;;0.90;;
28988;SDS011;16089;59.952;10.818;2022-07-23T08:16:16;1.80;;;0.80;;
28988;SDS011;16089;59.952;10.818;2022-07-23T08:18:43;2.65;;;0.90;;
28988;SDS011;16089;59.952;10.818;2022-07-23T08:21:09;1.33;;;0.75;;
28988;SDS011;16089;59.952;10.818;2022-07-23T08:23:36;2.22;;;0.70;;
28988;SDS011;16089;59.952;10.818;2022-07-23T08:26:02;1.10;;;0.60;;
28988;SDS011;16089;59.952;10.818;2022-07-23T08:28:29;2.15;;;0.60;;
28988;SDS011;16089;59.952;10.818;2022-07-23T08:30:59;3.05;;;0.65;;
28988;SDS011;16089;59.952;10.818;2022-07-23T08:33:25;1.02;;;0.70;;
28988;SDS011;16089;59.952;10.818;2022-07-23T08:35:52;3.30;;;0.60;;
28988;SDS011;16089;59.952;10.818;2022-07-23T08:38:19;0.77;;;0.60;;
28988;SDS011;16089;59.952;10.818;2022-07-23T08:40:46;1.40;;;0.70;;
28988;SDS011;16089;59.952;10.818;2022-07-23T08:43:13;1.17;;;0.70;;
28988;SDS011;16089;59.952;10.818;2022-07-23T08:45:41;0.88;;;0.60;;
28988;SDS011;16089;59.952;10.818;2022-07-23T08:48:11;1.30;;;0.80;;
28988;SDS011;16089;59.952;10.818;2022-07-23T08:50:37;1.67;;;0.82;;
28988;SDS011;16089;59.952;10.818;2022-07-23T08:53:06;1.80;;;0.80;;
28988;SDS011;16089;59.952;10.818;2022-07-23T08:55:33;1.95;;;0.73;;
28988;SDS011;16089;59.952;10.818;2022-07-23T08:58:00;1.15;;;0.75;;
28988;SDS011;16089;59.952;10.818;2022-07-23T09:00:26;1.20;;;0.75;;
28988;SDS011;16089;59.952;10.818;2022-07-23T09:02:53;1.35;;;0.70;;
28988;SDS011;16089;59.952;10.818;2022-07-23T09:05:21;0.95;;;0.70;;
28988;SDS011;16089;59.952;10.818;2022-07-23T09:08:06;1.10;;;0.70;;
28988;SDS011;16089;59.952;10.818;2022-07-23T09:10:42;1.40;;;0.80;;
28988;SDS011;16089;59.952;10.818;2022-07-23T09:13:14;1.83;;;0.85;;
28988;SDS011;16089;59.952;10.818;2022-07-23T09:15:48;1.17;;;0.70;;
28988;SDS011;16089;59.952;10.818;2022-07-23T09:18:15;1.85;;;0.90;;
28988;SDS011;16089;59.952;10.818;2022-07-23T09:20:44;1.17;;;0.70;;
28988;SDS011;16089;59.952;10.818;2022-07-23T09:23:10;1.27;;;0.70;;
28988;SDS011;16089;59.952;10.818;2022-07-23T09:25:37;1.35;;;0.60;;
28988;SDS011;16089;59.952;10.818;2022-07-23T09:28:03;2.15;;;0.90;;
28988;SDS011;16089;59.952;10.818;2022-07-23T09:30:32;1.30;;;0.70;;
28988;SDS011;16089;59.952;10.818;2022-07-23T09:33:09;2.30;;;0.90;;
28988;SDS011;16089;59.952;10.818;2022-07-23T09:35:48;1.02;;;0.80;;
28988;SDS011;16089;59.952;10.818;2022-07-23T09:38:14;1.48;;;0.77;;
28988;SDS011;16089;59.952;10.818;2022-07-23T09:40:41;1.95;;;0.90;;
28988;SDS011;16089;59.952;10.818;2022-07-23T09:43:08;1.00;;;0.73;;
28988;SDS011;16089;59.952;10.818;2022-07-23T09:45:34;1.52;;;0.70;;
28988;SDS011;16089;59.952;10.818;2022-07-23T09:48:10;1.73;;;0.70;;
28988;SDS011;16089;59.952;10.818;2022-07-23T09:50:37;1.42;;;0.70;;
28988;SDS011;16089;59.952;10.818;2022-07-23T09:53:05;1.38;;;0.73;;
28988;SDS011;16089;59.952;10.818;2022-07-23T09:55:32;2.42;;;0.70;;
28988;SDS011;16089;59.952;10.818;2022-07-23T09:58:01;0.65;;;0.60;;
28988;SDS011;16089;59.952;10.818;2022-07-23T10:00:28;1.10;;;0.70;;
28988;SDS011;16089;59.952;10.818;2022-07-23T10:02:55;1.45;;;0.80;;
28988;SDS011;16089;59.952;10.818;2022-07-23T10:05:23;1.25;;;0.65;;
28988;SDS011;16089;59.952;10.818;2022-07-23T10:07:50;1.05;;;0.70;;
28988;SDS011;16089;59.952;10.818;2022-07-23T10:10:18;1.38;;;0.80;;
28988;SDS011;16089;59.952;10.818;2022-07-23T10:12:44;1.77;;;0.60;;
28988;SDS011;16089;59.952;10.818;2022-07-23T10:15:30;1.90;;;0.80;;
28988;SDS011;16089;59.952;10.818;2022-07-23T10:17:57;1.40;;;0.80;;
28988;SDS011;16089;59.952;10.818;2022-07-23T10:20:23;1.10;;;0.70;;
28988;SDS011;16089;59.952;10.818;2022-07-23T10:22:53;0.70;;;0.60;;
28988;SDS011;16089;59.952;10.818;2022-07-23T10:25:26;1.42;;;0.70;;
28988;SDS011;16089;59.952;10.818;2022-07-23T10:27:57;1.27;;;0.80;;
28988;SDS011;16089;59.952;10.818;2022-07-23T10:30:27;1.05;;;0.60;;
28988;SDS011;16089;59.952;10.818;2022-07-23T10:33:03;1.08;;;0.70;;
28988;SDS011;16089;59.952;10.818;2022-07-23T10:35:47;2.58;;;0.60;;
28988;SDS011;16089;59.952;10.818;2022-07-23T10:38:21;1.23;;;0.73;;
28988;SDS011;16089;59.952;10.818;2022-07-23T10:40:55;1.17;;;0.70;;
28988;SDS011;16089;59.952;10.818;2022-07-23T10:43:22;1.55;;;0.70;;
28988;SDS011;16089;59.952;10.818;2022-07-23T10:45:48;2.72;;;0.65;;
28988;SDS011;16089;59.952;10.818;2022-07-23T10:48:16;1.10;;;0.70;;
28988;SDS011;16089;59.952;10.818;2022-07-23T10:50:42;1.20;;;0.77;;
28988;SDS011;16089;59.952;10.818;2022-07-23T10:53:10;1.63;;;0.73;;
28988;SDS011;16089;59.952;10.818;2022-07-23T10:55:39;1.05;;;0.70;;
28988;SDS011;16089;59.952;10.818;2022-07-23T10:58:07;1.42;;;0.65;;
28988;SDS011;16089;59.952;10.818;2022-07-23T11:00:34;0.95;;;0.70;;
28988;SDS011;16089;59.952;10.818;2022-07-23T11:03:01;2.55;;;0.70;;
28988;SDS011;16089;59.952;10.818;2022-07-23T11:05:39;2.28;;;0.70;;
28988;SDS011;16089;59.952;10.818;2022-07-23T11:10:51;1.77;;;0.70;;
28988;SDS011;16089;59.952;10.818;2022-07-23T11:13:30;0.80;;;0.70;;
28988;SDS011;16089;59.952;10.818;2022-07-23T11:16:03;2.47;;;0.80;;
28988;SDS011;16089;59.952;10.818;2022-07-23T11:21:40;1.10;;;0.60;;
28988;SDS011;16089;59.952;10.818;2022-07-23T11:24:07;1.80;;;0.60;;
28988;SDS011;16089;59.952;10.818;2022-07-23T11:26:40;1.10;;;0.57;;
28988;SDS011;16089;59.952;10.818;2022-07-23T11:31:55;1.00;;;0.70;;
28988;SDS011;16089;59.952;10.818;2022-07-23T11:34:24;1.33;;;0.70;;
28988;SDS011;16089;59.952;10.818;2022-07-23T11:36:53;1.92;;;0.88;;
28988;SDS011;16089;59.952;10.818;2022-07-23T11:39:20;4.18;;;0.70;;
28988;SDS011;16089;59.952;10.818;2022-07-23T11:41:46;0.80;;;0.60;;
28988;SDS011;16089;59.952;10.818;2022-07-23T11:44:23;3.08;;;0.70;;
28988;SDS011;16089;59.952;10.818;2022-07-23T11:46:55;1.13;;;0.70;;
28988;SDS011;16089;59.952;10.818;2022-07-23T11:49:22;2.20;;;0.65;;
28988;SDS011;16089;59.952;10.818;2022-07-23T11:51:59;1.42;;;0.85;;
28988;SDS011;16089;59.952;10.818;2022-07-23T11:54:28;1.73;;;0.52;;
28988;SDS011;16089;59.952;10.818;2022-07-23T11:56:55;0.90;;;0.70;;
28988;SDS011;16089;59.952;10.818;2022-07-23T11:59:21;0.73;;;0.65;;
28988;SDS011;16089;59.952;10.818;2022-07-23T12:01:56;2.25;;;0.70;;
28988;SDS011;16089;59.952;10.818;2022-07-23T12:04:24;0.90;;;0.70;;
28988;SDS011;16089;59.952;10.818;2022-07-23T12:06:50;1.40;;;0.80;;
28988;SDS011;16089;59.952;10.818;2022-07-23T12:09:16;1.23;;;0.70;;
28988;SDS011;16089;59.952;10.818;2022-07-23T12:11:56;1.10;;;0.63;;
28988;SDS011;16089;59.952;10.818;2022-07-23T12:14:22;1.38;;;0.80;;
28988;SDS011;16089;59.952;10.818;2022-07-23T12:19:31;0.88;;;0.60;;
28988;SDS011;16089;59.952;10.818;2022-07-23T12:21:57;1.20;;;0.70;;
28988;SDS011;16089;59.952;10.818;2022-07-23T12:24:24;1.23;;;0.80;;
28988;SDS011;16089;59.952;10.818;2022-07-23T12:29:33;2.53;;;0.80;;
28988;SDS011;16089;59.952;10.818;2022-07-23T12:32:00;2.13;;;0.80;;
28988;SDS011;16089;59.952;10.818;2022-07-23T12:34:26;1.95;;;0.70;;
28988;SDS011;16089;59.952;10.818;2022-07-23T12:36:54;1.45;;;0.77;;
28988;SDS011;16089;59.952;10.818;2022-07-23T12:39:29;1.75;;;1.05;;
28988;SDS011;16089;59.952;10.818;2022-07-23T12:41:55;2.17;;;0.80;;
28988;SDS011;16089;59.952;10.818;2022-07-23T12:44:21;4.57;;;1.05;;
28988;SDS011;16089;59.952;10.818;2022-07-23T12:46:49;2.50;;;0.80;;
28988;SDS011;16089;59.952;10.818;2022-07-23T12:49:24;2.63;;;0.80;;
28988;SDS011;16089;59.952;10.818;2022-07-23T12:51:51;0.88;;;0.70;;
28988;SDS011;16089;59.952;10.818;2022-07-23T12:54:19;1.52;;;0.80;;
28988;SDS011;16089;59.952;10.818;2022-07-23T12:59:19;1.10;;;0.70;;
28988;SDS011;16089;59.952;10.818;2022-07-23T13:01:53;1.23;;;1.10;;
28988;SDS011;16089;59.952;10.818;2022-07-23T13:04:20;2.83;;;0.90;;
28988;SDS011;16089;59.952;10.818;2022-07-23T13:06:47;2.63;;;0.90;;
28988;SDS011;16089;59.952;10.818;2022-07-23T13:09:15;4.25;;;0.80;;
28988;SDS011;16089;59.952;10.818;2022-07-23T13:11:43;2.05;;;0.90;;
28988;SDS011;16089;59.952;10.818;2022-07-23T13:14:10;1.30;;;0.70;;
28988;SDS011;16089;59.952;10.818;2022-07-23T13:16:37;2.88;;;0.90;;
28988;SDS011;16089;59.952;10.818;2022-07-23T13:19:03;1.65;;;0.85;;
28988;SDS011;16089;59.952;10.818;2022-07-23T13:21:29;2.80;;;0.77;;
28988;SDS011;16089;59.952;10.818;2022-07-23T13:23:56;1.60;;;0.90;;
28988;SDS011;16089;59.952;10.818;2022-07-23T13:26:22;1.20;;;0.70;;
28988;SDS011;16089;59.952;10.818;2022-07-23T13:28:51;2.25;;;0.80;;
28988;SDS011;16089;59.952;10.818;2022-07-23T13:31:17;2.10;;;0.70;;
28988;SDS011;16089;59.952;10.818;2022-07-23T13:33:44;1.10;;;0.70;;
28988;SDS011;16089;59.952;10.818;2022-07-23T13:36:10;3.25;;;0.80;;
28988;SDS011;16089;59.952;10.818;2022-07-23T13:38:37;3.20;;;0.85;;
28988;SDS011;16089;59.952;10.818;2022-07-23T13:41:04;1.10;;;0.80;;
28988;SDS011;16089;59.952;10.818;2022-07-23T13:43:30;1.10;;;0.75;;
28988;SDS011;16089;59.952;10.818;2022-07-23T13:45:58;2.78;;;0.80;;
28988;SDS011;16089;59.952;10.818;2022-07-23T13:48:24;1.83;;;0.75;;
28988;SDS011;16089;59.952;10.818;2022-07-23T13:50:51;2.90;;;0.88;;
28988;SDS011;16089;59.952;10.818;2022-07-23T13:53:18;1.63;;;0.77;;
28988;SDS011;16089;59.952;10.818;2022-07-23T13:55:45;1.40;;;0.73;;
28988;SDS011;16089;59.952;10.818;2022-07-23T13:58:12;1.55;;;0.88;;
28988;SDS011;16089;59.952;10.818;2022-07-23T14:00:39;2.75;;;0.90;;
28988;SDS011;16089;59.952;10.818;2022-07-23T14:03:07;3.10;;;0.95;;
28988;SDS011;16089;59.952;10.818;2022-07-23T14:05:34;2.50;;;0.70;;
28988;SDS011;16089;59.952;10.818;2022-07-23T14:08:00;2.97;;;0.90;;
28988;SDS011;16089;59.952;10.818;2022-07-23T14:10:27;2.42;;;0.80;;
28988;SDS011;16089;59.952;10.818;2022-07-23T14:12:53;1.63;;;0.80;;
28988;SDS011;16089;59.952;10.818;2022-07-23T14:15:21;1.92;;;0.90;;
28988;SDS011;16089;59.952;10.818;2022-07-23T14:17:48;1.23;;;0.80;;
28988;SDS011;16089;59.952;10.818;2022-07-23T14:20:16;1.70;;;0.80;;
28988;SDS011;16089;59.952;10.818;2022-07-23T14:22:42;1.50;;;0.80;;
28988;SDS011;16089;59.952;10.818;2022-07-23T14:25:09;1.48;;;0.77;;
28988;SDS011;16089;59.952;10.818;2022-07-23T14:27:35;2.05;;;0.90;;
28988;SDS011;16089;59.952;10.818;2022-07-23T14:30:03;1.38;;;0.80;;
28988;SDS011;16089;59.952;10.818;2022-07-23T14:32:30;1.55;;;0.90;;
28988;SDS011;16089;59.952;10.818;2022-07-23T14:34:56;1.77;;;0.80;;
28988;SDS011;16089;59.952;10.818;2022-07-23T14:37:24;1.30;;;0.77;;
28988;SDS011;16089;59.952;10.818;2022-07-23T14:39:51;1.95;;;1.02;;
28988;SDS011;16089;59.952;10.818;2022-07-23T14:42:17;1.10;;;0.77;;
28988;SDS011;16089;59.952;10.818;2022-07-23T14:44:44;2.55;;;0.90;;
28988;SDS011;16089;59.952;10.818;2022-07-23T14:47:10;2.65;;;1.05;;
28988;SDS011;16089;59.952;10.818;2022-07-23T14:49:36;2.45;;;0.82;;
28988;SDS011;16089;59.952;10.818;2022-07-23T14:52:03;6.47;;;3.35;;